createdAt,value
2018-08-25T00:04:49.639Z,14.00
2018-08-25T00:05:54.459Z,14.00
2018-08-25T00:07:04.424Z,14.00
2018-08-25T00:08:20.398Z,14.00
2018-08-25T00:09:24.162Z,14.00
2018-08-25T00:10:51.446Z,14.00
2018-08-25T00:12:06.120Z,14.10
2018-08-25T00:14:55.400Z,14.10
2018-08-25T00:17:19.973Z,14.10
2018-08-25T00:18:44.615Z,14.10
2018-08-25T00:22:57.491Z,14.00
2018-08-25T00:25:44.846Z,13.90
2018-08-25T00:28:28.257Z,13.90
2018-08-25T00:34:15.303Z,13.80
2018-08-25T00:37:01.294Z,13.80
2018-08-25T00:38:24.627Z,13.80
2018-08-25T00:39:52.372Z,13.80
2018-08-25T00:41:12.354Z,13.90
2018-08-25T00:45:00.802Z,13.90
2018-08-25T00:46:22.295Z,14.00
2018-08-25T00:49:08.738Z,14.00
2018-08-25T00:50:29.273Z,14.00
2018-08-25T00:53:38.748Z,14.00
2018-08-25T00:54:59.267Z,14.00
2018-08-25T00:56:21.633Z,13.90
2018-08-25T00:57:51.595Z,13.90
2018-08-25T00:59:17.199Z,13.90
2018-08-25T01:00:43.025Z,13.90
2018-08-25T01:04:12.238Z,13.80
2018-08-25T01:06:34.544Z,13.80
2018-08-25T01:07:49.683Z,13.80
2018-08-25T01:09:22.070Z,13.80
2018-08-25T01:10:51.747Z,13.70
2018-08-25T01:12:25.420Z,13.80
2018-08-25T01:13:50.619Z,13.70
2018-08-25T01:17:56.763Z,13.50
2018-08-25T01:20:23.621Z,13.40
2018-08-25T01:21:54.105Z,13.40
2018-08-25T01:23:05.499Z,13.40
2018-08-25T01:26:01.678Z,13.40
2018-08-25T01:27:28.596Z,13.40
2018-08-25T01:29:13.656Z,13.40
2018-08-25T01:30:26.710Z,13.40
2018-08-25T01:31:48.722Z,13.40
2018-08-25T01:33:40.193Z,13.40
2018-08-25T01:34:52.266Z,13.40
2018-08-25T01:36:11.238Z,13.40
2018-08-25T01:37:38.002Z,13.40
2018-08-25T01:39:08.471Z,13.50
2018-08-25T01:42:07.655Z,13.30
2018-08-25T01:43:22.393Z,13.20
2018-08-25T01:47:41.597Z,13.00
2018-08-25T01:55:09.721Z,13.30
2018-08-25T02:00:55.606Z,13.20
2018-08-25T02:02:10.576Z,13.00
2018-08-25T02:05:22.802Z,13.00
2018-08-25T02:06:57.792Z,13.00
2018-08-25T02:11:43.767Z,13.10
2018-08-25T02:13:02.870Z,13.10
2018-08-25T02:15:54.681Z,13.10
2018-08-25T02:19:03.071Z,13.20
2018-08-25T02:20:13.298Z,13.00
2018-08-25T02:26:14.069Z,13.10
2018-08-25T02:27:41.626Z,13.10
2018-08-25T02:33:38.992Z,13.00
2018-08-25T02:34:44.976Z,13.00
2018-08-25T02:36:26.278Z,12.90
2018-08-25T02:37:35.268Z,12.90
2018-08-25T02:39:05.112Z,13.00
2018-08-25T02:41:47.684Z,13.00
2018-08-25T02:43:09.944Z,13.10
2018-08-25T02:44:14.971Z,13.10
2018-08-25T02:45:37.151Z,13.20
2018-08-25T02:48:38.804Z,13.20
2018-08-25T02:50:03.205Z,13.20
2018-08-25T02:54:20.424Z,13.30
2018-08-25T02:55:51.783Z,13.30
2018-08-25T02:57:02.970Z,13.30
2018-08-25T03:01:15.008Z,13.40
2018-08-25T03:02:21.607Z,13.40
2018-08-25T03:05:41.337Z,13.40
2018-08-25T03:06:59.312Z,13.40
2018-08-25T03:08:02.889Z,13.40
2018-08-25T03:09:08.656Z,13.50
2018-08-25T03:10:12.341Z,13.50
2018-08-25T03:11:16.056Z,13.60
2018-08-25T03:12:19.670Z,13.60
2018-08-25T03:13:23.321Z,13.60
2018-08-25T03:14:27.157Z,13.70
2018-08-25T03:17:02.455Z,13.70
2018-08-25T03:18:25.297Z,13.70
2018-08-25T03:19:36.450Z,13.70
2018-08-25T03:20:43.971Z,13.70
2018-08-25T03:21:48.297Z,13.70
2018-08-25T03:23:05.024Z,13.70
2018-08-25T03:25:26.356Z,13.70
2018-08-25T03:27:24.073Z,13.80
2018-08-25T03:29:51.789Z,13.70
2018-08-25T03:30:55.350Z,13.70
2018-08-25T03:31:59.107Z,13.70
2018-08-25T03:33:02.738Z,13.70
2018-08-25T03:34:06.543Z,13.60
2018-08-25T03:35:10.609Z,13.50
2018-08-25T04:05:54.760Z,12.20
2018-08-25T04:06:58.344Z,12.20
2018-08-25T04:08:02.159Z,12.20
2018-08-25T04:09:09.422Z,12.20
2018-08-25T04:10:13.218Z,12.20
2018-08-25T04:11:17.566Z,12.20
2018-08-25T04:12:21.141Z,12.20
2018-08-25T04:13:25.382Z,12.20
2018-08-25T04:14:29.049Z,12.10
2018-08-25T04:15:32.757Z,12.10
2018-08-25T04:16:36.560Z,12.10
2018-08-25T04:17:40.138Z,12.00
2018-08-25T04:18:43.976Z,12.00
2018-08-25T04:19:48.483Z,12.00
2018-08-25T04:20:52.016Z,12.00
2018-08-25T04:21:55.571Z,12.00
2018-08-25T04:22:59.117Z,12.00
2018-08-25T04:24:02.759Z,12.00
2018-08-25T04:25:06.377Z,12.00
2018-08-25T04:26:09.996Z,12.00
2018-08-25T04:27:13.856Z,12.00
2018-08-25T04:28:17.635Z,12.00
2018-08-25T04:29:21.244Z,12.10
2018-08-25T04:30:25.559Z,12.20
2018-08-25T04:31:29.089Z,12.20
2018-08-25T04:32:33.483Z,12.10
2018-08-25T04:33:37.126Z,12.10
2018-08-25T04:34:40.805Z,12.10
2018-08-25T04:35:44.360Z,12.10
2018-08-25T04:36:48.307Z,12.10
2018-08-25T04:37:52.171Z,12.10
2018-08-25T04:38:55.714Z,12.10
2018-08-25T04:39:59.286Z,12.20
2018-08-25T04:41:02.856Z,12.10
2018-08-25T04:42:06.448Z,12.20
2018-08-25T04:43:10.442Z,12.10
2018-08-25T04:44:14.381Z,12.10
2018-08-25T04:45:18.128Z,12.10
2018-08-25T04:46:21.669Z,12.10
2018-08-25T04:47:25.264Z,12.20
2018-08-25T04:48:28.903Z,12.20
2018-08-25T04:49:32.595Z,12.30
2018-08-25T04:50:36.176Z,12.30
2018-08-25T04:51:39.937Z,12.30
2018-08-25T04:52:43.662Z,12.30
2018-08-25T04:53:48.463Z,12.30
2018-08-25T04:54:52.006Z,12.30
2018-08-25T04:55:55.589Z,12.30
2018-08-25T04:56:59.286Z,12.30
2018-08-25T04:58:03.387Z,12.30
2018-08-25T04:59:07.166Z,12.30
2018-08-25T05:00:11.188Z,12.40
2018-08-25T05:01:14.927Z,12.40
2018-08-25T05:02:18.499Z,12.40
2018-08-25T05:03:22.118Z,12.40
2018-08-25T05:04:25.642Z,12.30
2018-08-25T05:05:29.266Z,12.30
2018-08-25T05:06:33.052Z,12.30
2018-08-25T05:07:36.602Z,12.30
2018-08-25T05:08:40.304Z,12.30
2018-08-25T05:09:44.020Z,12.30
2018-08-25T05:10:47.678Z,12.30
2018-08-25T05:11:51.217Z,12.30
2018-08-25T05:12:55.530Z,12.40
2018-08-25T05:13:59.198Z,12.40
2018-08-25T05:15:02.941Z,12.40
2018-08-25T05:16:06.649Z,12.40
2018-08-25T05:17:10.422Z,12.50
2018-08-25T05:18:14.049Z,12.40
2018-08-25T05:19:17.796Z,12.40
2018-08-25T05:20:21.354Z,12.40
2018-08-25T05:21:24.974Z,12.40
2018-08-25T05:22:28.597Z,12.40
2018-08-25T05:23:32.315Z,12.50
2018-08-25T05:24:35.883Z,12.40
2018-08-25T05:25:39.566Z,12.40
2018-08-25T05:26:43.305Z,12.40
2018-08-25T05:27:47.038Z,12.50
2018-08-25T05:28:50.846Z,12.40
2018-08-25T05:29:54.750Z,12.40
2018-08-25T05:30:58.323Z,12.40
2018-08-25T05:32:01.958Z,12.50
2018-08-25T05:33:05.615Z,12.50
2018-08-25T05:34:09.381Z,12.50
2018-08-25T05:35:13.677Z,12.50
2018-08-25T05:36:17.904Z,12.50
2018-08-25T05:37:22.441Z,12.50
2018-08-25T05:38:26.199Z,12.50
2018-08-25T05:39:29.819Z,12.40
2018-08-25T05:40:33.468Z,12.40
2018-08-25T05:41:37.039Z,12.40
2018-08-25T05:42:40.738Z,12.40
2018-08-25T05:43:44.597Z,12.40
2018-08-25T05:44:48.432Z,12.40
2018-08-25T05:45:52.186Z,12.40
2018-08-25T05:46:55.888Z,12.40
2018-08-25T05:47:59.639Z,12.40
2018-08-25T05:49:03.455Z,12.30
2018-08-25T05:50:07.134Z,12.20
2018-08-25T05:51:10.785Z,12.20
2018-08-25T05:52:14.651Z,12.20
2018-08-25T05:53:18.403Z,12.20
2018-08-25T05:54:22.065Z,12.30
2018-08-25T05:55:25.761Z,12.30
2018-08-25T05:56:30.425Z,12.30
2018-08-25T05:57:34.023Z,12.30
2018-08-25T05:58:37.687Z,12.30
2018-08-25T05:59:41.335Z,12.30
2018-08-25T06:00:45.269Z,12.40
2018-08-25T06:01:48.817Z,12.30
2018-08-25T06:02:52.473Z,12.40
2018-08-25T06:03:56.098Z,12.40
2018-08-25T06:04:59.727Z,12.50
2018-08-25T06:06:03.320Z,12.50
2018-08-25T06:07:07.264Z,12.60
2018-08-25T06:08:10.873Z,12.60
2018-08-25T06:09:23.002Z,12.60
2018-08-25T06:10:27.436Z,12.70
2018-08-25T06:11:31.573Z,12.70
2018-08-25T06:12:35.347Z,12.70
2018-08-25T06:13:38.952Z,12.70
2018-08-25T06:14:42.621Z,12.90
2018-08-25T06:15:46.339Z,13.10
2018-08-25T06:16:50.364Z,13.20
2018-08-25T06:17:54.550Z,13.40
2018-08-25T06:18:58.294Z,13.60
2018-08-25T06:20:02.186Z,13.60
2018-08-25T06:21:06.922Z,13.60
2018-08-25T06:22:10.602Z,13.60
2018-08-25T06:23:14.389Z,13.60
2018-08-25T06:24:17.968Z,13.60
2018-08-25T06:25:21.728Z,13.50
2018-08-25T06:26:25.287Z,13.60
2018-08-25T06:27:28.930Z,13.80
2018-08-25T06:28:33.389Z,14.30
2018-08-25T06:29:54.984Z,14.60
2018-08-25T06:30:59.010Z,15.10
2018-08-25T06:32:02.566Z,15.80
2018-08-25T06:33:06.317Z,16.40
2018-08-25T06:34:09.876Z,16.70
2018-08-25T06:35:13.675Z,16.80
2018-08-25T06:36:17.223Z,16.70
2018-08-25T06:37:21.000Z,16.90
2018-08-25T06:38:24.544Z,17.40
2018-08-25T06:39:28.447Z,18.10
2018-08-25T06:40:32.000Z,18.40
2018-08-25T06:41:35.654Z,18.60
2018-08-25T06:42:39.275Z,18.90
2018-08-25T06:43:43.837Z,19.10
2018-08-25T06:44:47.443Z,19.20
2018-08-25T06:45:57.155Z,19.00
2018-08-25T06:47:00.875Z,19.00
2018-08-25T06:48:04.663Z,18.70
2018-08-25T06:49:08.231Z,18.30
2018-08-25T06:50:12.677Z,18.20
2018-08-25T06:51:16.445Z,18.00
2018-08-25T06:52:20.160Z,17.90
2018-08-25T06:53:24.049Z,17.70
2018-08-25T06:54:27.802Z,17.70
2018-08-25T06:55:31.382Z,17.90
2018-08-25T06:56:35.013Z,18.30
2018-08-25T06:57:38.627Z,18.70
2018-08-25T06:58:42.223Z,19.30
2018-08-25T06:59:45.951Z,20.00
2018-08-25T07:00:49.781Z,20.70
2018-08-25T07:01:53.406Z,21.20
2018-08-25T07:02:57.737Z,21.80
2018-08-25T07:04:01.402Z,22.30
2018-08-25T07:05:05.144Z,22.90
2018-08-25T07:06:08.804Z,23.10
2018-08-25T07:07:13.094Z,23.50
2018-08-25T07:08:16.678Z,23.60
2018-08-25T07:09:20.394Z,23.60
2018-08-25T07:10:24.665Z,24.10
2018-08-25T07:11:28.566Z,24.40
2018-08-25T07:12:32.230Z,24.80
2018-08-25T07:13:35.938Z,25.20
2018-08-25T07:14:39.825Z,25.80
2018-08-25T07:15:43.746Z,26.00
2018-08-25T07:16:47.368Z,25.90
2018-08-25T07:17:51.005Z,25.40
2018-08-25T07:18:54.820Z,25.30
2018-08-25T07:19:58.461Z,25.10
2018-08-25T07:21:02.104Z,24.70
2018-08-25T07:22:06.018Z,24.30
2018-08-25T07:23:09.637Z,23.90
2018-08-25T07:24:13.595Z,23.30
2018-08-25T07:25:17.511Z,22.80
2018-08-25T07:26:21.475Z,22.20
2018-08-25T07:27:25.214Z,22.20
2018-08-25T07:28:29.184Z,22.40
2018-08-25T07:29:32.987Z,22.50
2018-08-25T07:30:36.781Z,22.50
2018-08-25T07:31:40.694Z,22.50
2018-08-25T07:32:44.324Z,22.60
2018-08-25T07:33:48.104Z,22.50
2018-08-25T07:34:51.682Z,22.10
2018-08-25T07:35:55.265Z,21.90
2018-08-25T07:36:58.874Z,21.60
2018-08-25T07:38:02.652Z,21.20
2018-08-25T07:39:10.118Z,20.80
2018-08-25T07:40:14.179Z,20.50
2018-08-25T07:41:17.890Z,19.40
2018-08-25T07:42:21.787Z,18.90
2018-08-25T07:43:25.419Z,18.50
2018-08-25T07:44:29.323Z,18.10
2018-08-25T07:45:33.045Z,17.80
2018-08-25T07:46:37.316Z,17.60
2018-08-25T07:47:42.581Z,17.50
2018-08-25T07:48:46.231Z,17.40
2018-08-25T07:49:50.218Z,17.30
2018-08-25T07:50:54.084Z,17.10
2018-08-25T07:51:57.893Z,17.00
2018-08-25T07:53:01.611Z,16.90
2018-08-25T07:54:05.449Z,16.70
2018-08-25T07:55:10.039Z,16.50
2018-08-25T07:56:14.529Z,16.40
2018-08-25T07:57:18.254Z,16.30
2018-08-25T07:58:22.076Z,16.20
2018-08-25T07:59:25.798Z,16.10
2018-08-25T08:00:29.437Z,16.00
2018-08-25T08:01:33.442Z,16.10
2018-08-25T08:02:37.110Z,16.10
2018-08-25T08:03:40.777Z,16.10
2018-08-25T08:04:44.339Z,16.10
2018-08-25T08:05:48.019Z,15.90
2018-08-25T08:06:52.207Z,15.90
2018-08-25T08:07:56.091Z,16.00
2018-08-25T08:09:00.152Z,16.00
2018-08-25T08:10:04.084Z,16.10
2018-08-25T08:11:07.643Z,16.20
2018-08-25T08:12:11.919Z,16.30
2018-08-25T08:13:15.427Z,16.40
2018-08-25T08:14:19.121Z,16.50
2018-08-25T08:15:22.865Z,16.60
2018-08-25T08:16:26.627Z,16.50
2018-08-25T08:17:30.238Z,16.50
2018-08-25T08:18:33.937Z,16.50
2018-08-25T08:19:37.725Z,16.40
2018-08-25T08:20:41.357Z,16.20
2018-08-25T08:21:45.191Z,16.20
2018-08-25T08:22:48.796Z,15.90
2018-08-25T08:23:52.665Z,15.70
2018-08-25T08:24:56.920Z,15.60
2018-08-25T08:26:00.820Z,15.50
2018-08-25T08:27:04.771Z,15.30
2018-08-25T08:28:08.560Z,15.10
2018-08-25T08:30:32.625Z,15.00
2018-08-25T08:31:37.124Z,14.80
2018-08-25T08:32:40.911Z,14.80
2018-08-25T08:33:44.528Z,14.60
2018-08-25T08:34:49.142Z,14.50
2018-08-25T08:35:56.701Z,14.50
2018-08-25T08:37:00.706Z,14.30
2018-08-25T08:41:43.080Z,13.90
2018-08-25T08:42:46.803Z,13.70
2018-08-25T08:43:50.498Z,13.50
2018-08-25T08:44:54.444Z,13.40
2018-08-25T08:45:58.352Z,13.40
2018-08-25T08:48:56.128Z,13.30
2018-08-25T08:51:17.856Z,13.30
2018-08-25T08:52:48.265Z,13.30
2018-08-25T08:53:56.286Z,13.30
2018-08-25T08:55:00.002Z,13.20
2018-08-25T08:56:06.760Z,13.20
2018-08-25T09:01:44.836Z,13.00
2018-08-25T09:02:48.608Z,12.90
2018-08-25T09:14:30.796Z,13.10
2018-08-25T09:15:34.535Z,13.10
2018-08-25T09:16:38.761Z,13.20
2018-08-25T09:17:42.797Z,13.20
2018-08-25T09:18:57.763Z,13.10
2018-08-25T09:20:01.330Z,13.10
2018-08-25T09:21:05.354Z,13.30
2018-08-25T09:22:09.789Z,13.60
2018-08-25T09:23:13.803Z,13.80
2018-08-25T09:24:17.428Z,14.10
2018-08-25T09:25:31.111Z,14.40
2018-08-25T09:26:34.991Z,14.50
2018-08-25T09:27:38.733Z,14.70
2018-08-25T09:28:42.760Z,14.80
2018-08-25T09:29:46.435Z,14.90
2018-08-25T09:30:50.290Z,15.00
2018-08-25T09:31:54.036Z,15.10
2018-08-25T09:32:57.617Z,15.20
2018-08-25T09:34:01.302Z,15.30
2018-08-25T09:35:05.242Z,15.50
2018-08-25T09:36:09.809Z,15.60
2018-08-25T09:37:13.617Z,15.80
2018-08-25T09:38:17.249Z,15.90
2018-08-25T09:39:21.440Z,16.20
2018-08-25T09:40:25.010Z,16.40
2018-08-25T09:41:29.500Z,16.70
2018-08-25T09:42:33.937Z,16.60
2018-08-25T09:43:37.766Z,16.70
2018-08-25T09:44:41.453Z,16.90
2018-08-25T09:45:45.020Z,17.00
2018-08-25T09:46:48.751Z,17.20
2018-08-25T09:47:52.356Z,17.40
2018-08-25T09:48:56.183Z,17.60
2018-08-25T09:50:00.287Z,18.00
2018-08-25T09:51:04.445Z,18.20
2018-08-25T09:52:08.182Z,18.40
2018-08-25T09:53:11.954Z,18.60
2018-08-25T09:54:15.582Z,18.80
2018-08-25T09:55:19.426Z,19.00
2018-08-25T09:56:23.059Z,19.00
2018-08-25T09:57:26.652Z,19.40
2018-08-25T09:58:30.419Z,19.80
2018-08-25T09:59:34.075Z,20.10
2018-08-25T10:00:37.988Z,20.30
2018-08-25T10:01:47.049Z,20.40
2018-08-25T10:02:50.907Z,20.50
2018-08-25T10:03:54.587Z,20.20
2018-08-25T10:04:58.314Z,19.90
2018-08-25T10:06:02.059Z,19.80
2018-08-25T10:07:06.118Z,19.60
2018-08-25T10:08:09.903Z,19.60
2018-08-25T10:09:14.334Z,19.60
2018-08-25T10:10:18.045Z,19.60
2018-08-25T10:11:22.024Z,19.80
2018-08-25T10:12:25.615Z,19.90
2018-08-25T10:13:30.250Z,20.00
2018-08-25T10:14:34.278Z,19.90
2018-08-25T10:15:37.988Z,19.60
2018-08-25T10:16:41.783Z,19.30
2018-08-25T10:17:46.065Z,19.20
2018-08-25T10:18:49.823Z,19.10
2018-08-25T10:19:53.496Z,18.90
2018-08-25T10:20:57.239Z,18.80
2018-08-25T10:22:01.074Z,18.80
2018-08-25T10:23:04.866Z,18.90
2018-08-25T10:24:08.796Z,19.00
2018-08-25T10:25:12.816Z,19.20
2018-08-25T10:26:16.442Z,19.30
2018-08-25T10:27:20.202Z,19.50
2018-08-25T10:28:23.854Z,19.40
2018-08-25T10:29:27.590Z,19.50
2018-08-25T10:30:31.339Z,19.50
2018-08-25T10:31:35.778Z,19.70
2018-08-25T10:32:39.829Z,19.70
2018-08-25T10:33:47.429Z,19.60
2018-08-25T10:34:51.257Z,19.20
2018-08-25T10:35:55.403Z,18.90
2018-08-25T10:36:59.868Z,18.80
2018-08-25T10:38:03.579Z,18.60
2018-08-25T10:39:11.823Z,18.50
2018-08-25T10:40:15.403Z,18.50
2018-08-25T10:41:22.170Z,18.50
2018-08-25T10:42:27.941Z,18.40
2018-08-25T10:43:31.546Z,18.30
2018-08-25T10:44:35.440Z,18.10
2018-08-25T10:45:39.357Z,18.00
2018-08-25T10:46:43.596Z,18.10
2018-08-25T10:47:47.379Z,18.30
2018-08-25T10:48:51.376Z,18.40
2018-08-25T10:49:55.266Z,18.50
2018-08-25T10:50:59.144Z,18.60
2018-08-25T10:52:04.016Z,18.80
2018-08-25T10:53:07.644Z,18.90
2018-08-25T10:54:11.469Z,18.90
2018-08-25T10:55:15.373Z,18.90
2018-08-25T10:56:19.567Z,19.00
2018-08-25T10:57:23.342Z,19.10
2018-08-25T10:58:28.090Z,19.40
2018-08-25T10:59:31.673Z,19.50
2018-08-25T11:00:35.563Z,19.50
2018-08-25T11:01:39.284Z,19.60
2018-08-25T11:02:43.004Z,19.60
2018-08-25T11:03:46.824Z,19.70
2018-08-25T11:04:50.614Z,19.70
2018-08-25T11:05:54.304Z,19.80
2018-08-25T11:06:58.068Z,19.90
2018-08-25T11:08:02.133Z,19.70
2018-08-25T11:09:09.965Z,19.50
2018-08-25T11:10:13.782Z,19.50
2018-08-25T11:11:17.797Z,19.30
2018-08-25T11:12:21.870Z,19.20
2018-08-25T11:13:26.144Z,19.00
2018-08-25T11:14:29.825Z,18.80
2018-08-25T11:15:33.802Z,18.90
2018-08-25T11:16:37.731Z,18.90
2018-08-25T11:17:41.611Z,19.00
2018-08-25T11:18:46.349Z,19.10
2018-08-25T11:19:50.276Z,19.10
2018-08-25T11:20:53.924Z,19.00
2018-08-25T11:21:57.652Z,19.10
2018-08-25T11:23:01.602Z,19.20
2018-08-25T11:24:06.855Z,19.50
2018-08-25T11:25:11.565Z,19.70
2018-08-25T11:26:15.233Z,19.80
2018-08-25T11:27:19.514Z,19.80
2018-08-25T11:28:23.230Z,19.70
2018-08-25T11:29:27.427Z,19.60
2018-08-25T11:30:31.081Z,19.50
2018-08-25T11:31:34.928Z,19.60
2018-08-25T11:32:38.907Z,19.80
2018-08-25T11:33:42.707Z,20.10
2018-08-25T11:34:46.723Z,20.20
2018-08-25T11:35:51.421Z,20.50
2018-08-25T11:36:55.168Z,20.70
2018-08-25T11:37:58.934Z,20.90
2018-08-25T11:39:09.981Z,21.10
2018-08-25T11:40:14.688Z,21.30
2018-08-25T11:41:19.024Z,21.50
2018-08-25T11:42:24.830Z,21.70
2018-08-25T11:43:30.651Z,21.60
2018-08-25T11:44:35.803Z,21.50
2018-08-25T11:45:39.837Z,21.20
2018-08-25T11:46:43.853Z,21.20
2018-08-25T11:47:47.984Z,21.10
2018-08-25T11:48:51.801Z,21.10
2018-08-25T11:49:55.655Z,21.30
2018-08-25T11:51:03.361Z,21.30
2018-08-25T11:52:10.912Z,21.30
2018-08-25T11:53:14.886Z,21.10
2018-08-25T11:54:18.713Z,20.90
2018-08-25T11:55:22.808Z,20.80
2018-08-25T11:56:27.129Z,20.70
2018-08-25T11:57:33.072Z,20.50
2018-08-25T11:58:37.333Z,20.50
2018-08-25T11:59:41.045Z,20.30
2018-08-25T12:00:45.289Z,20.20
2018-08-25T13:31:50.480Z,21.80
2018-08-25T13:32:54.187Z,21.60
2018-08-25T13:33:59.496Z,21.20
2018-08-25T13:35:06.768Z,20.90
2018-08-25T13:36:11.606Z,20.30
2018-08-25T13:37:15.595Z,19.50
2018-08-25T13:38:19.665Z,18.50
2018-08-25T13:39:23.473Z,17.80
2018-08-25T13:40:29.012Z,17.20
2018-08-25T13:41:36.034Z,16.60
2018-08-25T13:42:39.730Z,16.00
2018-08-25T13:43:43.595Z,15.30
2018-08-25T13:44:47.297Z,14.80
2018-08-25T13:45:52.377Z,14.60
2018-08-25T13:46:56.091Z,14.30
2018-08-25T13:47:59.845Z,14.10
2018-08-25T13:49:03.782Z,13.80
2018-08-25T13:50:07.521Z,13.70
2018-08-25T13:51:11.840Z,13.60
2018-08-25T13:52:16.753Z,13.40
2018-08-25T13:53:21.243Z,13.40
2018-08-25T13:54:25.108Z,13.30
2018-08-25T13:55:30.280Z,13.30
2018-08-25T13:56:34.691Z,13.40
2018-08-25T13:57:39.216Z,13.40
2018-08-25T13:58:43.655Z,13.60
2018-08-25T13:59:47.390Z,13.70
2018-08-25T14:00:51.993Z,13.80
2018-08-25T14:01:56.457Z,13.90
2018-08-25T14:03:00.677Z,14.00
2018-08-25T14:04:04.567Z,14.00
2018-08-25T14:05:08.184Z,14.10
2018-08-25T14:06:13.035Z,14.20
2018-08-25T14:07:16.715Z,14.30
2018-08-25T14:08:20.706Z,14.30
2018-08-25T14:09:24.259Z,14.40
2018-08-25T14:10:28.687Z,14.40
2018-08-25T14:11:33.301Z,14.40
2018-08-25T14:12:36.940Z,14.40
2018-08-25T14:13:41.779Z,14.40
2018-08-25T14:14:46.142Z,14.30
2018-08-25T14:15:50.540Z,14.40
2018-08-25T14:16:54.259Z,14.50
2018-08-25T14:17:58.105Z,14.50
2018-08-25T14:19:01.994Z,14.40
2018-08-25T14:20:05.738Z,14.50
2018-08-25T14:21:09.624Z,14.50
2018-08-25T14:22:13.688Z,14.60
2018-08-25T14:23:17.619Z,14.60
2018-08-25T14:24:21.554Z,14.70
2018-08-25T14:25:25.720Z,14.60
2018-08-25T14:26:29.876Z,14.70
2018-08-25T14:27:33.878Z,14.80
2018-08-25T14:28:37.550Z,14.90
2018-08-25T14:29:41.566Z,15.00
2018-08-25T14:30:45.418Z,15.10
2018-08-25T14:31:49.836Z,15.20
2018-08-25T14:32:54.303Z,15.40
2018-08-25T14:33:58.199Z,15.50
2018-08-25T14:35:02.275Z,15.60
2018-08-25T14:36:06.300Z,15.80
2018-08-25T14:37:10.266Z,16.00
2018-08-25T14:38:14.185Z,16.20
2018-08-25T14:39:18.029Z,16.40
2018-08-25T14:40:21.829Z,16.60
2018-08-25T14:41:25.485Z,16.80
2018-08-25T14:42:29.107Z,16.90
2018-08-25T14:43:35.330Z,17.10
2018-08-25T14:44:40.244Z,17.20
2018-08-25T14:45:46.481Z,17.30
2018-08-25T14:46:52.200Z,17.40
2018-08-25T14:47:56.856Z,17.50
2018-08-25T14:49:01.531Z,17.60
2018-08-25T14:50:05.401Z,17.70
2018-08-25T14:51:10.928Z,17.70
2018-08-25T14:52:15.755Z,17.70
2018-08-25T14:53:20.367Z,17.70
2018-08-25T14:54:25.151Z,17.60
2018-08-25T14:55:28.912Z,17.60
2018-08-25T14:56:35.054Z,17.50
2018-08-25T14:57:38.783Z,17.50
2018-08-25T14:58:42.520Z,17.40
2018-08-25T14:59:46.492Z,17.40
2018-08-25T15:00:50.410Z,17.30
2018-08-25T15:01:54.907Z,17.20
2018-08-25T15:02:58.615Z,17.20
2018-08-25T15:04:02.976Z,17.10
2018-08-25T15:05:07.559Z,17.00
2018-08-25T15:06:11.876Z,16.80
2018-08-25T15:07:15.768Z,16.60
2018-08-25T15:08:19.821Z,16.60
2018-08-25T15:09:24.903Z,16.50
2018-08-25T15:10:29.234Z,16.40
2018-08-25T15:11:32.963Z,16.30
2018-08-25T15:12:36.611Z,16.30
2018-08-25T15:13:41.254Z,16.30
2018-08-25T15:14:45.928Z,16.30
2018-08-25T15:15:50.915Z,16.20
2018-08-25T15:16:54.791Z,16.20
2018-08-25T15:17:59.242Z,16.20
2018-08-25T15:19:03.151Z,16.10
2018-08-25T15:20:06.890Z,16.10
2018-08-25T15:21:10.819Z,16.00
2018-08-25T15:22:14.568Z,16.00
2018-08-25T15:23:18.411Z,16.00
2018-08-25T15:24:22.737Z,15.90
2018-08-25T15:25:27.660Z,15.90
2018-08-25T15:26:32.330Z,15.90
2018-08-25T15:27:36.101Z,15.90
2018-08-25T15:28:42.555Z,15.90
2018-08-25T15:29:47.434Z,16.00
2018-08-25T15:30:54.407Z,16.00
2018-08-25T15:31:58.399Z,16.10
2018-08-25T15:33:02.087Z,16.10
2018-08-25T15:34:07.306Z,16.20
2018-08-25T15:35:12.051Z,16.20
2018-08-25T15:36:23.655Z,16.30
2018-08-25T15:39:01.579Z,16.40
2018-08-25T15:40:06.957Z,16.30
2018-08-25T15:41:10.788Z,16.30
2018-08-25T15:42:14.670Z,16.20
2018-08-25T15:43:20.039Z,16.10
2018-08-25T15:44:23.836Z,16.10
2018-08-25T15:45:28.495Z,16.10
2018-08-25T15:46:32.288Z,16.10
2018-08-25T15:47:36.346Z,16.00
2018-08-25T15:48:41.257Z,16.10
2018-08-25T15:49:46.559Z,16.10
2018-08-25T15:50:51.174Z,16.20
2018-08-25T15:51:55.957Z,16.30
2018-08-25T15:52:59.980Z,16.30
2018-08-25T15:54:04.365Z,16.30
2018-08-25T15:55:08.659Z,16.30
2018-08-25T15:56:13.204Z,16.30
2018-08-25T15:57:17.760Z,16.30
2018-08-25T15:58:21.789Z,16.30
2018-08-25T15:59:25.899Z,16.30
2018-08-25T16:01:57.250Z,16.20
2018-08-25T16:03:01.300Z,16.10
2018-08-25T16:04:05.256Z,16.00
2018-08-25T16:05:09.967Z,15.80
2018-08-25T16:06:18.507Z,15.80
2018-08-25T16:07:27.751Z,15.70
2018-08-25T16:08:33.805Z,15.60
2018-08-25T16:09:44.309Z,15.60
2018-08-25T16:11:10.803Z,15.50
2018-08-25T16:12:27.494Z,15.50
2018-08-25T16:15:04.413Z,15.20
2018-08-25T16:17:51.145Z,15.00
2018-08-25T16:19:00.816Z,14.80
2018-08-25T16:20:09.624Z,14.80
2018-08-25T16:21:24.254Z,14.70
2018-08-25T16:22:42.768Z,14.60
2018-08-25T16:23:56.258Z,14.60
2018-08-25T16:25:10.007Z,14.50
2018-08-25T16:26:22.403Z,14.50
2018-08-25T16:29:22.841Z,14.40
2018-08-25T16:30:43.408Z,14.30
2018-08-25T16:31:50.922Z,14.10
2018-08-25T16:32:58.500Z,13.90
2018-08-25T16:34:13.536Z,13.80
2018-08-25T16:35:18.202Z,13.70
2018-08-25T16:36:42.680Z,13.50
2018-08-25T16:37:47.201Z,13.40
2018-08-25T16:38:50.953Z,13.30
2018-08-25T16:39:59.196Z,13.10
2018-08-25T16:41:03.156Z,13.00
2018-08-25T16:42:07.012Z,12.90
2018-08-25T16:43:10.896Z,12.90
2018-08-25T16:44:15.156Z,12.80
2018-08-25T16:45:18.937Z,12.80
2018-08-25T16:46:22.984Z,12.80
2018-08-25T16:47:26.811Z,12.80
2018-08-25T16:48:31.309Z,13.00
2018-08-25T16:49:41.031Z,13.10
2018-08-25T16:50:44.923Z,13.40
2018-08-25T16:51:49.558Z,13.70
2018-08-25T16:52:56.607Z,14.10
2018-08-25T16:54:01.014Z,14.40
2018-08-25T16:55:04.840Z,14.70
2018-08-25T16:56:09.273Z,14.90
2018-08-25T16:57:13.532Z,15.10
2018-08-25T16:58:18.392Z,15.30
2018-08-25T16:59:22.433Z,15.40
2018-08-25T17:00:26.251Z,15.50
2018-08-25T17:01:31.620Z,15.60
2018-08-25T17:04:25.929Z,15.80
2018-08-25T17:05:33.717Z,15.80
2018-08-25T17:06:42.912Z,15.80
2018-08-25T17:08:10.850Z,15.80
2018-08-25T17:09:17.463Z,15.80
2018-08-25T17:10:22.824Z,15.60
2018-08-25T17:11:50.314Z,15.40
2018-08-25T17:12:57.022Z,15.30
2018-08-25T17:16:09.680Z,14.90
2018-08-25T17:17:16.119Z,14.70
2018-08-25T17:18:20.148Z,14.60
2018-08-25T17:22:22.721Z,14.40
2018-08-25T17:23:31.705Z,14.20
2018-08-25T17:24:41.840Z,14.00
2018-08-25T17:25:47.182Z,13.80
2018-08-25T17:27:11.794Z,13.70
2018-08-25T17:28:18.482Z,13.60
2018-08-25T17:29:32.822Z,13.40
2018-08-25T17:30:41.962Z,13.30
2018-08-25T17:31:57.801Z,13.20
2018-08-25T17:35:57.718Z,12.90
2018-08-25T17:37:17.146Z,12.90
2018-08-25T17:40:11.308Z,12.80
2018-08-25T17:41:44.984Z,12.80
2018-08-25T17:43:03.736Z,12.80
2018-08-25T17:44:58.668Z,12.80
2018-08-25T17:46:02.587Z,12.80
2018-08-25T17:47:28.724Z,12.80
2018-08-25T17:48:33.316Z,12.80
2018-08-25T17:49:49.764Z,12.80
2018-08-25T17:52:40.493Z,12.80
2018-08-25T17:54:06.814Z,12.70
2018-08-25T17:55:11.642Z,12.70
2018-08-25T17:56:43.391Z,12.70
2018-08-25T17:57:51.707Z,12.70
2018-08-25T17:58:57.276Z,12.70
2018-08-25T18:03:49.175Z,12.60
2018-08-25T18:07:54.534Z,12.60
2018-08-25T18:08:58.897Z,12.60
2018-08-25T18:10:02.612Z,12.60
2018-08-25T18:11:09.687Z,12.60
2018-08-25T18:12:16.090Z,12.60
2018-08-25T18:13:24.016Z,12.60
2018-08-25T18:14:32.262Z,12.60
2018-08-25T18:15:36.664Z,12.50
2018-08-25T18:16:40.539Z,12.50
2018-08-25T18:17:46.067Z,12.40
2018-08-25T18:18:53.217Z,12.40
2018-08-25T18:19:57.555Z,12.40
2018-08-25T18:21:01.814Z,12.30
2018-08-25T18:22:07.047Z,12.30
2018-08-25T18:23:12.688Z,12.20
2018-08-25T18:24:18.354Z,12.20
2018-08-25T18:25:23.358Z,12.20
2018-08-25T18:26:32.963Z,12.20
2018-08-25T18:27:37.738Z,12.10
2018-08-25T18:28:42.011Z,12.10
2018-08-25T18:29:47.016Z,12.10
2018-08-25T18:30:51.545Z,12.00
2018-08-25T18:31:56.108Z,12.00
2018-08-25T18:33:00.096Z,12.00